Ana Sayfa
METAR-TAF:

METAR-TAF

Havaalanları :

Tulça, Romanya

Enlem: 45-11N, Boylam: 028-49E, yükseklik: 4 m

Güncel hava durumu gözlemi

Rapor saat 04:30 UTC de 25 dakika önce yapıldı.
Sakin rüzgar
Sıcaklık 16°C
Nem 88%
Basınç 1014 hPa
Görüş mesafesi 10 km veya daha fazla

METAR: LRTC 150430Z AUTO 00000KT 9999 NCD 16/14 Q1014

Saat: 07:55 (04:55 UTC)

Tahmin

Rapor saat 14:00 UTC de 14 saat ve 55 dakika önce yapıldı.
Ayın 14'si saat 15 UTC'den ayın 14'si saat 24 UTC'ye kadar geçerli Tahmin
Rüzgar güneydoğudan 12 kt
Görüş mesafesi 10 km veya daha fazla
1500 m altında bulut yok ve kümülonimbus yok
Dönüşüyor
ayın 14'si saat 17 UTC'den ayın 14'si saat 19 UTC'ye kadar
Rüzgar değişken yönden 4 kt

TAF: LRTC 141400Z 1415/1424 13012KT CAVOK BECMG 1417/1419 VRB04KT

4.000'den fazla havaalanı için hava durumu gözlemleri ve tahminleri (METAR ve TAF raporları).

Kullanılabilir istasyonlar harita üzerinde sarı ve kırmızı noktalarla gösterilir.

İstasyonun adını görmek için fareyi noktanın üzerinde gezdirin.

Sonrasında hava gözlem ve tahminlerini görmek için tıklayın.

Haritayı değiştirmek için: yaklaştırmak için siyah artı işaretli yeşil düğmeye ve uzaklaştırmak için de eksi işaretli düğmeye hızla tıklayın; bitişik haritalar için yeşil okları kullanın.


METAR-TAF: